Time;durP1;ratioP1;P1;durP2;ratioP2;P2;SDS_P1;SDS_P2;PMS_P1;PMS_P2;Temp;Humidity;BMP_temperature;BMP_pressure;BME280_temperature;BME280_humidity;BME280_pressure;Samples;Min_cycle;Max_cycle;Signal;HPM_P1;HPM_P2
2021/03/26 00:00:15;;;;;;;9.10;5.28;;;10.50;96.70;;;;;;4942433;28;20055;-77
2021/03/26 00:02:43;;;;;;;6.95;4.72;;;10.40;96.70;;;;;;4937896;28;20054;-77
2021/03/26 00:05:14;;;;;;;8.52;4.57;;;10.30;96.70;;;;;;4960415;28;20069;-77
2021/03/26 00:07:42;;;;;;;6.10;4.30;;;10.20;96.70;;;;;;4958064;28;20580;-77
2021/03/26 00:10:12;;;;;;;9.93;5.00;;;10.30;96.70;;;;;;4943370;29;20047;-77
2021/03/26 00:12:41;;;;;;;7.00;4.32;;;10.50;96.70;;;;;;4937222;28;20126;-77
2021/03/26 00:15:10;;;;;;;7.10;4.50;;;10.30;96.70;;;;;;4938704;28;20122;-77
2021/03/26 00:17:37;;;;;;;9.38;4.70;;;10.20;96.70;;;;;;4936996;28;20089;-77
2021/03/26 00:20:07;;;;;;;11.73;3.97;;;10.30;96.70;;;;;;4939341;29;20047;-77
2021/03/26 00:22:34;;;;;;;5.88;4.18;;;10.20;96.70;;;;;;4943199;28;20592;-77
2021/03/26 00:25:03;;;;;;;9.68;4.75;;;10.30;96.70;;;;;;4941272;28;20039;-77
2021/03/26 00:27:30;;;;;;;7.75;4.70;;;10.30;96.70;;;;;;4956218;28;20417;-77
2021/03/26 00:29:59;;;;;;;10.20;5.93;;;10.20;96.70;;;;;;4927793;29;20036;-77
2021/03/26 00:32:26;;;;;;;11.95;6.40;;;10.20;96.70;;;;;;4925912;29;20093;-77
2021/03/26 00:34:54;;;;;;;9.15;6.30;;;10.20;96.70;;;;;;4937868;29;20043;-77
2021/03/26 00:37:22;;;;;;;11.80;7.20;;;10.20;96.70;;;;;;4944812;28;20541;-77
2021/03/26 00:39:49;;;;;;;14.25;7.18;;;10.30;96.70;;;;;;4940327;28;20447;-77
2021/03/26 00:42:17;;;;;;;13.65;7.57;;;10.30;96.70;;;;;;4939641;28;20043;-77
2021/03/26 00:44:45;;;;;;;13.23;6.10;;;10.20;96.70;;;;;;4940759;29;20470;-77
2021/03/26 00:47:13;;;;;;;9.13;5.78;;;10.20;96.70;;;;;;4937146;28;20046;-77
2021/03/26 00:49:41;;;;;;;11.70;5.40;;;10.20;96.70;;;;;;4944936;29;20058;-77
2021/03/26 00:52:09;;;;;;;11.70;5.95;;;10.20;96.70;;;;;;4942198;28;20126;-77
2021/03/26 00:54:37;;;;;;;7.78;5.15;;;10.00;96.70;;;;;;4942859;29;20046;-77
2021/03/26 00:57:05;;;;;;;8.70;4.55;;;10.10;96.70;;;;;;4926014;29;21603;-77
2021/03/26 00:59:44;;;;;;;9.35;4.40;;;9.90;96.70;;;;;;4938619;28;20087;-76
2021/03/26 01:02:13;;;;;;;7.38;4.35;;;9.90;96.70;;;;;;4937886;28;20134;-77
2021/03/26 01:04:40;;;;;;;8.38;5.20;;;9.90;96.70;;;;;;4942029;28;20827;-76
2021/03/26 01:07:08;;;;;;;9.35;5.63;;;10.00;96.70;;;;;;4928369;29;20079;-77
2021/03/26 01:09:36;;;;;;;8.45;6.00;;;9.90;96.70;;;;;;4932262;29;20703;-77
2021/03/26 01:12:05;;;;;;;9.23;5.80;;;9.80;96.70;;;;;;4931759;29;20051;-77
2021/03/26 01:14:33;;;;;;;8.85;5.68;;;9.90;96.70;;;;;;4932096;29;20051;-77
2021/03/26 01:17:02;;;;;;;10.50;5.55;;;9.90;96.70;;;;;;4921960;29;20090;-77
2021/03/26 01:19:33;;;;;;;9.68;5.60;;;9.90;96.70;;;;;;4923782;29;20091;-77
2021/03/26 01:22:00;;;;;;;8.65;4.90;;;9.90;96.70;;;;;;4927033;29;20111;-77
2021/03/26 01:24:28;;;;;;;7.05;4.75;;;9.90;96.70;;;;;;4934185;29;20059;-77
2021/03/26 01:26:56;;;;;;;8.18;4.43;;;9.90;96.70;;;;;;4933035;29;20079;-77
2021/03/26 01:29:28;;;;;;;9.68;4.88;;;10.00;96.70;;;;;;4946611;28;20043;-77
2021/03/26 01:31:59;;;;;;;8.50;4.50;;;10.00;96.70;;;;;;4920314;29;20043;-77
2021/03/26 01:34:27;;;;;;;7.53;4.30;;;10.00;96.70;;;;;;4926979;29;20155;-77
2021/03/26 01:37:00;;;;;;;9.05;4.43;;;9.90;96.70;;;;;;4924925;29;20150;-77
2021/03/26 01:39:29;;;;;;;8.85;5.25;;;9.70;96.70;;;;;;4927921;29;20054;-77
2021/03/26 01:41:57;;;;;;;10.98;4.93;;;9.60;96.70;;;;;;4939025;28;20052;-77
2021/03/26 01:44:28;;;;;;;8.73;4.53;;;9.50;96.70;;;;;;4911056;29;20162;-77
2021/03/26 01:47:06;;;;;;;6.40;3.70;;;9.40;96.70;;;;;;4925146;29;20486;-78
2021/03/26 01:49:34;;;;;;;6.90;4.07;;;9.40;96.70;;;;;;4908969;29;20052;-77
2021/03/26 01:52:07;;;;;;;7.78;4.30;;;9.50;96.70;;;;;;4924170;29;20050;-77
2021/03/26 01:54:36;;;;;;;6.65;3.70;;;9.60;96.70;;;;;;4908315;29;20066;-77
2021/03/26 01:57:12;;;;;;;8.90;4.00;;;9.60;96.70;;;;;;4947540;28;20568;-77
2021/03/26 01:59:45;;;;;;;4.63;3.33;;;9.70;96.70;;;;;;4904890;29;20590;-77
2021/03/26 02:02:22;;;;;;;5.55;3.95;;;9.70;96.70;;;;;;4914524;29;20090;-77
2021/03/26 02:04:59;;;;;;;8.00;4.20;;;9.60;96.70;;;;;;4919891;29;20075;-77
2021/03/26 02:07:37;;;;;;;9.55;4.78;;;9.50;96.70;;;;;;4924607;28;20066;-77
2021/03/26 02:10:08;;;;;;;10.50;3.92;;;9.60;96.70;;;;;;4960172;28;20051;-77
2021/03/26 02:12:37;;;;;;;5.68;4.55;;;9.60;96.70;;;;;;4942326;28;20240;-77
2021/03/26 02:15:17;;;;;;;6.20;4.32;;;9.70;96.70;;;;;;4922077;29;20047;-77
2021/03/26 02:17:46;;;;;;;6.20;4.55;;;9.70;96.70;;;;;;4956185;28;20047;-75
2021/03/26 02:20:27;;;;;;;7.70;4.40;;;9.70;96.70;;;;;;4944746;28;20552;-76
2021/03/26 02:22:58;;;;;;;5.75;4.05;;;9.60;96.70;;;;;;4944592;28;20382;-76
2021/03/26 02:25:29;;;;;;;6.22;3.80;;;9.60;96.70;;;;;;4942014;29;20055;-75
2021/03/26 02:27:57;;;;;;;8.90;4.43;;;9.60;96.70;;;;;;4944820;28;20051;-76
2021/03/26 02:30:31;;;;;;;6.72;4.07;;;9.60;96.70;;;;;;4936141;28;20039;-75
2021/03/26 02:32:58;;;;;;;5.15;3.55;;;9.60;96.70;;;;;;4941507;28;20047;-76
2021/03/26 02:35:31;;;;;;;7.05;3.50;;;9.60;96.70;;;;;;4945155;29;20054;-75
2021/03/26 02:38:14;;;;;;;5.20;2.90;;;9.60;96.70;;;;;;4954811;28;21177;-76
2021/03/26 02:40:47;;;;;;;5.90;3.60;;;9.70;96.70;;;;;;4941283;28;20324;-75
2021/03/26 02:43:24;;;;;;;6.30;3.97;;;9.70;96.70;;;;;;4943642;28;20122;-76
2021/03/26 02:45:59;;;;;;;8.05;4.38;;;9.70;96.70;;;;;;4944882;28;20663;-76
2021/03/26 02:48:36;;;;;;;5.93;4.35;;;9.70;96.70;;;;;;4943761;28;20043;-76
2021/03/26 02:51:12;;;;;;;6.40;3.85;;;9.70;96.70;;;;;;4959766;28;20043;-75
2021/03/26 02:53:58;;;;;;;7.13;3.67;;;9.40;96.70;;;;;;4944467;28;20051;-76
2021/03/26 02:56:34;;;;;;;6.65;4.45;;;9.30;96.70;;;;;;4939523;28;20134;-75
2021/03/26 02:59:07;;;;;;;6.57;4.53;;;9.30;96.70;;;;;;4942250;29;20723;-76
2021/03/26 03:01:38;;;;;;;10.30;5.10;;;9.30;96.70;;;;;;4942089;28;20625;-75
2021/03/26 03:04:11;;;;;;;9.68;5.35;;;9.30;96.70;;;;;;4937054;29;20450;-75
2021/03/26 03:06:42;;;;;;;10.40;5.20;;;9.40;96.70;;;;;;4942136;28;20075;-75
2021/03/26 03:09:26;;;;;;;11.60;5.65;;;9.40;96.70;;;;;;4939002;29;20039;-76
2021/03/26 03:11:59;;;;;;;9.82;5.88;;;9.30;96.70;;;;;;4944703;28;20043;-76
2021/03/26 03:14:31;;;;;;;7.50;5.50;;;9.30;96.70;;;;;;4940571;28;20163;-76
2021/03/26 03:17:09;;;;;;;7.90;5.07;;;9.30;96.70;;;;;;4940179;29;20054;-75
2021/03/26 03:19:50;;;;;;;8.85;5.68;;;9.20;96.70;;;;;;4956717;28;20039;-76
2021/03/26 03:22:25;;;;;;;7.38;5.53;;;9.20;96.70;;;;;;4954203;28;20517;-75
2021/03/26 03:24:54;;;;;;;7.80;5.53;;;9.10;96.70;;;;;;4943698;28;20468;-74
2021/03/26 03:27:36;;;;;;;8.90;5.70;;;9.10;96.70;;;;;;4943452;28;20043;-75
2021/03/26 03:30:13;;;;;;;10.38;6.28;;;9.00;96.70;;;;;;4938825;28;20415;-75
2021/03/26 03:32:55;;;;;;;11.40;5.80;;;9.10;96.70;;;;;;4937136;29;20117;-75
2021/03/26 03:35:35;;;;;;;9.25;5.65;;;9.10;96.70;;;;;;4940238;28;20039;-76
2021/03/26 03:38:19;;;;;;;7.70;4.95;;;9.00;96.70;;;;;;4936533;28;20134;-76
2021/03/26 03:40:52;;;;;;;8.15;5.30;;;9.00;96.70;;;;;;4958778;28;20240;-75
2021/03/26 03:43:28;;;;;;;10.43;5.30;;;9.10;96.70;;;;;;4938919;28;20051;-75
2021/03/26 03:46:01;;;;;;;7.78;5.75;;;9.10;96.70;;;;;;4956221;28;20536;-75
2021/03/26 03:48:43;;;;;;;7.38;5.22;;;9.10;96.70;;;;;;4940389;28;20055;-76
2021/03/26 03:51:16;;;;;;;7.88;4.95;;;9.00;96.70;;;;;;4941738;28;20051;-75
2021/03/26 03:53:49;;;;;;;9.85;5.13;;;9.00;96.70;;;;;;4936055;28;20051;-75
2021/03/26 03:56:27;;;;;;;8.45;5.28;;;9.00;96.70;;;;;;4942969;28;20106;-75
2021/03/26 03:59:00;;;;;;;7.72;5.00;;;9.00;96.70;;;;;;4933457;29;20058;-76
2021/03/26 04:01:34;;;;;;;8.85;5.25;;;9.00;96.70;;;;;;4957012;28;20052;-75
2021/03/26 04:04:10;;;;;;;8.30;5.10;;;9.00;96.70;;;;;;4936489;28;20052;-75
2021/03/26 04:06:47;;;;;;;12.32;5.40;;;9.00;96.70;;;;;;4933688;28;20453;-75
2021/03/26 04:09:18;;;;;;;12.57;5.18;;;9.00;96.70;;;;;;4933739;28;20054;-75
2021/03/26 04:11:53;;;;;;;7.40;4.85;;;9.00;96.70;;;;;;4939336;29;20088;-75
2021/03/26 04:14:46;;;;;;;8.32;5.93;;;8.90;96.70;;;;;;4939776;29;20410;-75
2021/03/26 04:17:18;;;;;;;7.70;5.47;;;9.00;96.70;;;;;;4927630;28;20097;-75
2021/03/26 04:19:50;;;;;;;9.75;5.13;;;8.90;96.70;;;;;;4939021;29;20051;-75
2021/03/26 04:22:22;;;;;;;8.75;4.65;;;9.00;96.70;;;;;;4934257;28;20425;-75
2021/03/26 04:25:08;;;;;;;7.55;5.15;;;9.00;96.70;;;;;;4937544;28;20094;-75
2021/03/26 04:27:38;;;;;;;7.05;4.78;;;8.90;96.70;;;;;;4941015;28;20039;-75
2021/03/26 04:30:19;;;;;;;8.32;5.07;;;8.70;96.70;;;;;;4942560;29;20053;-75
2021/03/26 04:32:52;;;;;;;9.93;5.13;;;8.60;96.70;;;;;;4941274;28;20042;-75
2021/03/26 04:35:23;;;;;;;7.45;5.07;;;8.60;96.70;;;;;;4938578;29;20446;-75
2021/03/26 04:38:07;;;;;;;8.27;5.10;;;8.70;96.70;;;;;;4925305;29;20098;-75
2021/03/26 04:40:40;;;;;;;7.32;4.55;;;8.70;96.70;;;;;;4920081;29;20048;-75
2021/03/26 04:43:19;;;;;;;9.40;4.78;;;8.60;96.70;;;;;;4941576;28;20043;-75
2021/03/26 04:45:55;;;;;;;7.57;5.15;;;8.50;96.70;;;;;;4937868;28;20389;-74
2021/03/26 04:48:37;;;;;;;6.75;4.47;;;8.50;96.70;;;;;;4927156;29;20066;-75
2021/03/26 04:51:18;;;;;;;8.88;4.60;;;8.50;96.70;;;;;;4939082;28;20162;-75
2021/03/26 04:54:01;;;;;;;7.47;4.53;;;8.60;96.70;;;;;;4924215;29;20557;-75
2021/03/26 04:56:36;;;;;;;7.45;4.03;;;8.50;96.70;;;;;;4937893;29;20040;-75
2021/03/26 04:59:16;;;;;;;6.10;3.90;;;8.50;96.70;;;;;;4922275;29;20518;-76
2021/03/26 05:02:03;;;;;;;7.78;4.20;;;8.60;96.70;;;;;;4939769;28;20043;-75
2021/03/26 05:04:36;;;;;;;8.02;4.55;;;8.70;96.70;;;;;;4939917;29;20094;-75
2021/03/26 05:07:09;;;;;;;8.82;5.00;;;8.70;96.70;;;;;;4941414;28;20063;-75
2021/03/26 05:09:39;;;;;;;7.57;4.82;;;8.70;96.70;;;;;;4940756;29;20051;-75
2021/03/26 05:12:23;;;;;;;8.32;4.65;;;8.70;96.70;;;;;;4929018;29;20126;-75
2021/03/26 05:14:57;;;;;;;14.77;6.43;;;8.80;96.70;;;;;;4939816;28;20043;-76
2021/03/26 05:17:32;;;;;;;6.03;4.28;;;8.80;96.70;;;;;;4940819;29;20438;-75
2021/03/26 05:20:21;;;;;;;7.63;4.60;;;8.80;96.70;;;;;;4936693;28;20058;-75
2021/03/26 05:23:01;;;;;;;9.60;4.53;;;8.80;96.70;;;;;;4952325;28;20157;-76
2021/03/26 05:25:51;;;;;;;7.53;4.28;;;8.80;96.70;;;;;;4940024;28;20198;-75
2021/03/26 05:28:28;;;;;;;6.72;3.72;;;8.90;96.70;;;;;;4936415;29;20075;-75
2021/03/26 05:31:11;;;;;;;6.00;4.20;;;8.90;96.70;;;;;;4937580;28;20043;-75
2021/03/26 05:33:45;;;;;;;6.30;4.38;;;8.90;96.70;;;;;;4941477;29;20094;-75
2021/03/26 05:36:19;;;;;;;6.85;4.18;;;8.80;96.70;;;;;;4935115;29;20051;-75
2021/03/26 05:39:04;;;;;;;12.88;4.32;;;9.00;96.70;;;;;;4940387;28;20055;-76
2021/03/26 05:42:00;;;;;;;8.18;4.60;;;9.00;96.70;;;;;;4939081;29;20584;-75
2021/03/26 05:44:48;;;;;;;8.52;4.93;;;8.90;96.70;;;;;;4933013;28;20054;-75
2021/03/26 05:47:36;;;;;;;9.18;5.70;;;9.00;96.70;;;;;;4943423;29;20147;-75
2021/03/26 05:50:31;;;;;;;9.30;4.97;;;8.90;96.70;;;;;;4941903;28;20031;-75
2021/03/26 05:53:16;;;;;;;7.43;4.43;;;8.90;96.70;;;;;;4942569;28;20581;-75
2021/03/26 05:56:05;;;;;;;7.57;4.50;;;8.90;96.70;;;;;;4937359;29;20042;-75
2021/03/26 05:58:52;;;;;;;6.72;4.68;;;9.00;96.70;;;;;;4943836;28;20546;-75
2021/03/26 06:01:32;;;;;;;7.47;4.95;;;9.10;96.70;;;;;;4943126;29;20047;-76
2021/03/26 06:04:33;;;;;;;6.97;4.85;;;9.20;96.70;;;;;;4919909;29;20051;-75
2021/03/26 06:07:41;;;;;;;7.55;4.80;;;9.20;96.70;;;;;;4940591;28;20399;-75
2021/03/26 06:10:47;;;;;;;7.22;4.32;;;9.30;96.70;;;;;;4956025;28;20102;-76
2021/03/26 06:13:49;;;;;;;8.35;4.53;;;9.40;96.70;;;;;;4952837;28;20047;-76
2021/03/26 06:16:41;;;;;;;11.25;5.35;;;9.30;96.70;;;;;;4945209;28;20545;-76
2021/03/26 06:19:44;;;;;;;7.05;4.50;;;9.30;96.70;;;;;;4936002;28;20043;-75
2021/03/26 06:22:59;;;;;;;8.93;5.40;;;9.30;96.70;;;;;;4943039;28;20612;-76
2021/03/26 06:26:01;;;;;;;8.00;4.88;;;9.40;96.70;;;;;;4952613;28;20051;-76
2021/03/26 06:28:39;;;;;;;7.93;5.05;;;9.40;96.70;;;;;;4942479;28;20031;-75
2021/03/26 06:31:38;;;;;;;7.22;5.00;;;9.30;96.70;;;;;;4941839;29;20054;-75
2021/03/26 06:34:50;;;;;;;7.60;5.05;;;9.30;96.70;;;;;;4952570;28;20293;-76
2021/03/26 06:37:35;;;;;;;7.40;5.25;;;9.30;96.70;;;;;;4937376;28;20205;-75
2021/03/26 06:40:22;;;;;;;8.23;5.05;;;9.40;96.70;;;;;;4943073;28;20637;-75
2021/03/26 06:43:03;;;;;;;9.30;5.18;;;9.40;96.70;;;;;;4942377;28;20502;-76
2021/03/26 06:45:43;;;;;;;8.30;5.30;;;9.40;96.70;;;;;;4944127;29;20050;-75
2021/03/26 06:48:23;;;;;;;12.90;5.90;;;9.40;96.70;;;;;;4928425;29;20291;-75
2021/03/26 06:51:06;;;;;;;8.65;5.28;;;9.40;96.70;;;;;;4943311;28;20141;-76
2021/03/26 06:53:39;;;;;;;8.98;5.57;;;9.40;96.70;;;;;;4955687;28;20319;-75
2021/03/26 06:56:32;;;;;;;10.87;5.60;;;9.50;96.70;;;;;;4941518;28;20422;-76
2021/03/26 06:59:23;;;;;;;10.07;5.30;;;9.60;96.70;;;;;;4949482;28;20307;-75
2021/03/26 07:02:03;;;;;;;7.53;4.60;;;9.70;96.70;;;;;;4935711;28;20126;-75
2021/03/26 07:04:47;;;;;;;6.95;5.35;;;9.70;96.70;;;;;;4943576;29;20035;-76
2021/03/26 07:07:30;;;;;;;9.57;5.68;;;9.80;96.70;;;;;;4931534;28;20493;-76
2021/03/26 07:10:20;;;;;;;8.82;5.22;;;9.80;96.70;;;;;;4920770;29;20058;-77
2021/03/26 07:13:15;;;;;;;11.40;5.53;;;9.90;96.70;;;;;;4924536;29;20216;-76
2021/03/26 07:15:51;;;;;;;8.32;5.20;;;10.00;96.70;;;;;;4922591;29;20723;-77
2021/03/26 07:18:38;;;;;;;10.32;5.47;;;10.10;96.70;;;;;;4918812;29;20134;-77
2021/03/26 07:21:18;;;;;;;10.85;5.70;;;10.10;96.70;;;;;;4924168;29;20047;-77
2021/03/26 07:24:08;;;;;;;10.23;6.07;;;10.20;96.70;;;;;;4925279;29;20098;-77
2021/03/26 07:26:52;;;;;;;8.40;6.97;;;10.10;96.70;;;;;;4924034;29;20077;-77
2021/03/26 07:29:33;;;;;;;10.40;7.00;;;10.10;96.70;;;;;;4923309;29;20059;-77
2021/03/26 07:32:21;;;;;;;9.98;6.88;;;10.10;96.70;;;;;;4925340;29;20044;-77
2021/03/26 07:35:07;;;;;;;13.60;6.75;;;10.10;96.70;;;;;;4921615;29;20039;-77
2021/03/26 07:37:50;;;;;;;9.93;6.82;;;10.10;96.70;;;;;;4932320;28;20401;-77
2021/03/26 07:40:37;;;;;;;9.43;6.68;;;10.10;96.70;;;;;;4919002;29;20071;-77
2021/03/26 07:43:22;;;;;;;13.27;7.35;;;10.20;96.70;;;;;;4919525;29;20055;-77
2021/03/26 07:46:11;;;;;;;11.27;6.45;;;10.10;96.70;;;;;;4922366;29;20040;-76
2021/03/26 07:48:54;;;;;;;10.68;6.40;;;10.20;96.70;;;;;;4925065;29;20058;-76
2021/03/26 07:51:27;;;;;;;10.88;6.45;;;10.30;96.70;;;;;;4939238;28;20103;-76
2021/03/26 07:54:23;;;;;;;10.48;6.65;;;10.50;96.70;;;;;;4904375;29;20624;-76
2021/03/26 07:57:20;;;;;;;12.93;6.67;;;10.60;96.70;;;;;;4920513;29;20861;-76
2021/03/26 08:00:06;;;;;;;13.35;7.35;;;10.60;96.70;;;;;;4922199;29;20036;-76
2021/03/26 08:02:56;;;;;;;10.50;7.05;;;10.60;96.70;;;;;;4909815;29;20142;-76
2021/03/26 08:05:29;;;;;;;13.93;7.78;;;10.70;96.70;;;;;;4923594;29;20411;-76
2021/03/26 08:08:29;;;;;;;14.13;7.40;;;10.70;96.70;;;;;;4927542;28;20071;-76
2021/03/26 08:11:04;;;;;;;14.55;7.28;;;10.70;96.70;;;;;;4922118;29;20047;-76
2021/03/26 08:14:03;;;;;;;15.15;7.63;;;10.70;96.70;;;;;;4918188;29;20044;-76
2021/03/26 08:16:57;;;;;;;10.38;6.53;;;10.80;96.70;;;;;;4913011;29;20533;-76
2021/03/26 08:19:35;;;;;;;13.65;7.05;;;10.80;96.70;;;;;;4933105;28;20265;-76
2021/03/26 08:22:13;;;;;;;11.05;6.93;;;10.90;96.70;;;;;;4917428;29;20066;-76
2021/03/26 08:24:57;;;;;;;11.07;6.88;;;10.90;96.70;;;;;;4933983;28;20048;-76
2021/03/26 08:27:40;;;;;;;10.82;6.82;;;11.00;96.70;;;;;;4915660;29;20052;-76
2021/03/26 08:30:29;;;;;;;10.32;6.38;;;11.00;96.70;;;;;;4919237;29;20054;-79
2021/03/26 08:33:11;;;;;;;13.13;6.35;;;11.10;96.70;;;;;;4944475;28;20071;-77
2021/03/26 08:36:01;;;;;;;10.60;7.20;;;11.10;96.70;;;;;;4944606;28;20521;-76
2021/03/26 08:38:40;;;;;;;11.60;6.88;;;11.20;96.70;;;;;;4925160;29;20048;-77
2021/03/26 08:41:15;;;;;;;13.23;7.13;;;11.20;96.70;;;;;;4943520;28;20146;-76
2021/03/26 08:43:50;;;;;;;13.38;7.53;;;11.20;96.70;;;;;;4933300;28;20503;-75
2021/03/26 08:46:20;;;;;;;10.30;7.43;;;11.20;96.70;;;;;;4913623;29;20071;-76
2021/03/26 08:48:54;;;;;;;10.77;6.78;;;11.10;96.70;;;;;;4924028;29;20138;-75
2021/03/26 08:51:51;;;;;;;10.15;7.28;;;11.20;96.70;;;;;;4916732;29;20365;-75
2021/03/26 08:54:40;;;;;;;11.00;7.63;;;11.30;96.70;;;;;;4930643;29;20579;-75
2021/03/26 08:57:15;;;;;;;11.88;7.75;;;11.40;96.70;;;;;;4904573;29;20055;-75
2021/03/26 08:59:56;;;;;;;14.35;8.55;;;11.50;96.70;;;;;;4917914;29;20051;-75
2021/03/26 09:02:53;;;;;;;12.32;7.50;;;11.60;96.70;;;;;;4921319;29;20047;-74
2021/03/26 09:05:45;;;;;;;11.77;7.60;;;11.70;96.70;;;;;;4922593;29;20122;-75
2021/03/26 09:08:32;;;;;;;12.65;8.43;;;11.70;96.70;;;;;;4913283;29;20118;-75
2021/03/26 09:11:22;;;;;;;9.82;7.45;;;11.80;96.70;;;;;;4917707;29;20083;-76
2021/03/26 09:14:05;;;;;;;15.57;7.90;;;11.80;96.70;;;;;;4919703;29;20054;-74
2021/03/26 09:16:35;;;;;;;12.27;7.93;;;12.00;96.70;;;;;;4915922;29;20082;-75
2021/03/26 09:19:09;;;;;;;13.35;8.40;;;12.00;96.70;;;;;;4915751;29;20077;-75
2021/03/26 09:21:44;;;;;;;11.23;8.57;;;12.00;96.70;;;;;;4924540;29;20431;-75
2021/03/26 09:24:26;;;;;;;12.25;7.88;;;12.00;96.70;;;;;;4920275;29;20043;-75
2021/03/26 09:27:03;;;;;;;12.15;8.20;;;12.00;96.70;;;;;;4921993;29;20067;-77
2021/03/26 09:29:39;;;;;;;13.05;8.35;;;12.10;96.70;;;;;;4937643;29;20394;-77
2021/03/26 09:32:13;;;;;;;10.50;8.25;;;12.10;96.70;;;;;;4920388;29;20050;-78
2021/03/26 09:34:46;;;;;;;12.00;8.68;;;12.10;96.70;;;;;;4915041;29;20126;-75
2021/03/26 09:37:19;;;;;;;11.35;9.07;;;12.10;96.70;;;;;;4921337;29;20048;-76
2021/03/26 09:39:55;;;;;;;14.23;9.55;;;12.10;96.70;;;;;;4914477;29;20223;-76
2021/03/26 09:42:36;;;;;;;15.30;9.18;;;12.10;96.70;;;;;;4922944;29;20127;-76
2021/03/26 09:45:14;;;;;;;15.40;9.30;;;12.10;96.70;;;;;;4920179;29;20054;-76
2021/03/26 09:47:55;;;;;;;15.38;8.77;;;12.10;96.70;;;;;;4923321;29;20048;-75
2021/03/26 09:50:31;;;;;;;13.75;9.02;;;12.20;96.70;;;;;;4918183;29;20047;-75
2021/03/26 09:52:59;;;;;;;15.45;9.13;;;12.20;96.70;;;;;;4919822;29;20046;-76
2021/03/26 09:55:32;;;;;;;15.75;9.13;;;12.20;96.70;;;;;;4918576;29;20036;-76
2021/03/26 09:58:10;;;;;;;12.35;8.88;;;12.20;96.70;;;;;;4919124;29;20539;-76
2021/03/26 10:00:45;;;;;;;15.40;8.82;;;12.30;96.70;;;;;;4924564;29;20059;-76
2021/03/26 10:03:25;;;;;;;13.85;9.70;;;12.30;96.70;;;;;;4923004;29;20067;-76
2021/03/26 10:05:58;;;;;;;22.17;10.65;;;12.40;96.70;;;;;;4932984;28;20133;-76
2021/03/26 10:11:15;;;;;;;11.40;8.57;;;12.40;96.70;;;;;;4942261;29;20122;-78
2021/03/26 10:13:47;;;;;;;16.10;9.23;;;12.50;96.70;;;;;;4956177;28;20047;-77
2021/03/26 10:16:19;;;;;;;16.95;9.50;;;12.60;96.70;;;;;;4943062;29;20079;-75
2021/03/26 10:18:51;;;;;;;15.27;9.63;;;12.60;96.70;;;;;;4936846;28;20043;-75
2021/03/26 10:21:22;;;;;;;14.40;9.25;;;12.70;96.70;;;;;;4943870;29;20126;-75
2021/03/26 10:24:04;;;;;;;15.77;10.02;;;12.70;96.70;;;;;;4942244;28;20078;-76
2021/03/26 10:26:39;;;;;;;15.82;10.18;;;12.80;96.70;;;;;;4951986;28;20043;-75
2021/03/26 10:29:19;;;;;;;16.83;9.48;;;12.80;96.70;;;;;;4941070;28;20134;-76
2021/03/26 10:31:49;;;;;;;14.02;8.73;;;12.90;96.70;;;;;;4931634;28;20135;-75
2021/03/26 10:34:31;;;;;;;14.25;9.88;;;13.00;96.70;;;;;;4941650;28;20505;-76
2021/03/26 10:37:24;;;;;;;12.65;8.35;;;13.00;96.70;;;;;;4943125;28;20035;-75
2021/03/26 10:39:56;;;;;;;13.93;9.32;;;13.20;96.70;;;;;;4955092;28;20044;-76
2021/03/26 10:42:39;;;;;;;14.15;9.25;;;13.30;96.70;;;;;;4924223;28;20055;-76
2021/03/26 10:45:25;;;;;;;17.83;9.70;;;13.20;96.70;;;;;;4943748;28;20054;-76
2021/03/26 10:48:00;;;;;;;13.30;8.57;;;13.20;96.70;;;;;;4929996;28;20058;-76
2021/03/26 10:50:38;;;;;;;11.95;8.40;;;13.10;96.70;;;;;;4944058;28;20382;-75
2021/03/26 10:53:10;;;;;;;15.18;9.15;;;13.00;96.70;;;;;;4941515;28;20043;-76
2021/03/26 10:55:45;;;;;;;12.85;10.07;;;13.10;96.70;;;;;;4956869;28;20047;-75
2021/03/26 10:58:25;;;;;;;11.32;8.20;;;13.10;96.70;;;;;;4943366;28;20043;-75
2021/03/26 11:01:04;;;;;;;13.73;9.48;;;13.20;96.70;;;;;;4928079;28;20047;-76
2021/03/26 11:03:39;;;;;;;16.05;9.07;;;13.20;96.70;;;;;;4943156;28;20035;-74
2021/03/26 11:06:21;;;;;;;9.48;7.53;;;13.20;96.70;;;;;;4945507;28;20063;-76
2021/03/26 11:08:53;;;;;;;10.57;7.78;;;13.20;96.70;;;;;;4962534;28;20057;-76
2021/03/26 11:11:31;;;;;;;15.15;10.50;;;13.20;96.70;;;;;;4960832;28;20061;-76
2021/03/26 11:14:24;;;;;;;19.58;9.85;;;13.20;96.70;;;;;;4949923;28;20491;-76
2021/03/26 11:17:04;;;;;;;13.85;9.80;;;13.20;96.70;;;;;;4944757;28;20039;-75
2021/03/26 11:19:36;;;;;;;12.40;8.00;;;13.10;96.70;;;;;;4954345;28;20070;-76
2021/03/26 11:22:11;;;;;;;17.08;9.70;;;13.10;96.70;;;;;;4962851;28;20043;-75
2021/03/26 11:24:41;;;;;;;15.40;10.10;;;13.10;96.70;;;;;;4964051;28;20501;-75
2021/03/26 11:27:17;;;;;;;16.42;11.32;;;13.00;96.70;;;;;;4946866;28;20039;-75
2021/03/26 11:29:55;;;;;;;16.02;10.38;;;12.90;96.70;;;;;;4956565;28;20070;-75
2021/03/26 11:32:25;;;;;;;18.35;11.75;;;12.90;96.70;;;;;;4947393;28;20061;-76
2021/03/26 11:35:01;;;;;;;19.45;11.18;;;12.90;96.70;;;;;;4926276;28;20501;-78
2021/03/26 11:37:38;;;;;;;16.45;10.15;;;13.00;96.70;;;;;;4944732;28;20054;-75
2021/03/26 11:40:14;;;;;;;20.33;10.57;;;13.00;96.70;;;;;;4959366;28;20133;-75
2021/03/26 11:42:47;;;;;;;16.60;10.13;;;13.00;96.70;;;;;;4959221;28;20046;-75
2021/03/26 11:45:33;;;;;;;19.70;10.50;;;13.00;96.70;;;;;;4937384;28;20123;-75
2021/03/26 11:48:08;;;;;;;18.93;11.07;;;13.10;96.70;;;;;;4945556;28;20413;-76
2021/03/26 11:50:40;;;;;;;19.08;10.38;;;13.10;96.70;;;;;;4947386;28;20437;-73
2021/03/26 11:53:21;;;;;;;21.33;12.15;;;13.20;96.70;;;;;;4964023;28;20048;-74
2021/03/26 11:56:02;;;;;;;16.48;10.93;;;13.30;96.70;;;;;;4962175;28;20039;-74
2021/03/26 11:58:38;;;;;;;17.52;10.63;;;13.40;96.70;;;;;;4962374;28;20047;-75
2021/03/26 12:01:10;;;;;;;17.17;10.63;;;13.40;96.70;;;;;;4944926;28;20162;-74
2021/03/26 12:03:47;;;;;;;17.63;10.40;;;13.50;96.70;;;;;;4939032;28;20038;-75
2021/03/26 12:06:23;;;;;;;16.13;9.15;;;13.40;96.70;;;;;;4961362;28;20403;-75
2021/03/26 12:09:07;;;;;;;16.52;9.10;;;13.40;96.70;;;;;;4960926;28;20398;-75
2021/03/26 12:11:45;;;;;;;10.73;7.17;;;13.40;96.70;;;;;;4969148;28;20125;-74
2021/03/26 12:14:20;;;;;;;15.88;8.65;;;13.50;96.70;;;;;;4963455;28;20089;-74
2021/03/26 12:17:01;;;;;;;32.58;22.88;;;13.60;96.70;;;;;;4949319;28;20047;-74
2021/03/26 12:19:31;;;;;;;24.60;15.40;;;13.60;96.70;;;;;;4954159;28;20050;-74
2021/03/26 12:22:05;;;;;;;14.77;9.30;;;13.70;96.70;;;;;;4966589;28;20420;-75
2021/03/26 12:24:39;;;;;;;12.88;8.07;;;13.80;96.70;;;;;;4954511;28;20046;-75
2021/03/26 12:27:17;;;;;;;14.65;8.35;;;13.80;96.70;;;;;;4961087;28;20186;-75
2021/03/26 12:29:50;;;;;;;14.70;9.35;;;13.90;96.70;;;;;;4941025;28;20405;-75
2021/03/26 12:32:32;;;;;;;13.15;7.93;;;14.00;96.70;;;;;;4964771;28;20074;-76
2021/03/26 12:35:15;;;;;;;16.38;7.85;;;14.10;96.70;;;;;;4963104;28;20066;-74
2021/03/26 12:37:53;;;;;;;14.20;7.80;;;14.10;96.70;;;;;;4961094;28;20042;-77
2021/03/26 12:40:25;;;;;;;;;;;14.10;96.70;;;;;;4962485;28;20046;-75
2021/03/26 12:43:01;;;;;;;11.98;6.93;;;14.10;96.70;;;;;;4955289;28;20285;-74
2021/03/26 12:45:35;;;;;;;11.85;7.03;;;14.20;96.70;;;;;;4950426;28;20057;-76
2021/03/26 12:48:08;;;;;;;13.90;7.32;;;14.20;96.70;;;;;;4934534;28;20887;-73
2021/03/26 12:50:47;;;;;;;9.85;7.10;;;14.20;96.70;;;;;;4964773;28;20051;-75
2021/03/26 12:53:23;;;;;;;14.55;7.50;;;14.20;96.70;;;;;;4959608;28;20472;-76
2021/03/26 12:55:56;;;;;;;;;;;14.20;96.70;;;;;;4932046;28;20072;-75
2021/03/26 12:58:47;;;;;;;10.73;7.68;;;14.10;96.70;;;;;;4954757;28;19932;-75
2021/03/26 13:01:19;;;;;;;11.85;7.57;;;14.10;96.70;;;;;;4943119;28;20093;-75
2021/03/26 13:03:57;;;;;;;12.30;7.70;;;14.10;96.70;;;;;;4968316;28;20106;-75
2021/03/26 13:06:33;;;;;;;17.45;7.95;;;14.10;96.70;;;;;;4944997;28;20111;-73
2021/03/26 13:09:23;;;;;;;13.95;7.50;;;14.10;96.70;;;;;;4967163;28;20049;-74
2021/03/26 13:11:56;;;;;;;16.13;8.65;;;14.10;96.70;;;;;;4944470;28;20053;-74
2021/03/26 13:14:33;;;;;;;17.40;8.68;;;14.10;96.70;;;;;;4962358;28;20280;-74
2021/03/26 13:17:02;;;;;;;13.13;7.88;;;14.10;96.70;;;;;;4944104;28;20046;-75
2021/03/26 13:19:34;;;;;;;11.38;8.05;;;14.10;96.70;;;;;;4951601;28;20596;-77
2021/03/26 13:22:12;;;;;;;8.40;6.88;;;14.20;96.70;;;;;;4966943;28;20047;-74
2021/03/26 13:24:47;;;;;;;12.73;7.38;;;14.20;96.70;;;;;;4955885;28;20584;-75
2021/03/26 13:27:27;;;;;;;13.20;8.10;;;14.30;96.70;;;;;;4958933;28;20043;-75
2021/03/26 13:30:00;;;;;;;12.27;7.75;;;14.30;96.70;;;;;;4967284;28;20042;-76
2021/03/26 13:32:38;;;;;;;13.10;8.60;;;14.40;96.70;;;;;;4963803;28;20141;-77
2021/03/26 13:35:13;;;;;;;12.50;7.45;;;14.50;96.70;;;;;;4959429;28;20043;-77
2021/03/26 13:37:43;;;;;;;11.00;7.45;;;14.60;96.70;;;;;;4946886;28;20302;-77
2021/03/26 13:40:15;;;;;;;10.68;6.70;;;14.80;96.70;;;;;;4962285;28;20072;-75
2021/03/26 13:42:46;;;;;;;10.30;6.32;;;15.00;96.70;;;;;;4961970;28;20041;-76